createdAt,value
2023-01-21T00:01:58.851Z,5.44
2023-01-21T00:04:34.491Z,5.33
2023-01-21T00:07:08.780Z,5.33
2023-01-21T00:09:42.173Z,5.55
2023-01-21T00:12:16.386Z,5.71
2023-01-21T00:14:50.092Z,5.55
2023-01-21T00:17:25.191Z,5.37
2023-01-21T00:19:58.343Z,5.37
2023-01-21T00:22:31.688Z,5.46
2023-01-21T00:25:05.315Z,5.44
2023-01-21T00:27:38.576Z,5.41
2023-01-21T00:30:12.963Z,5.23
2023-01-21T00:32:47.716Z,5.16
2023-01-21T00:35:20.870Z,5.36
2023-01-21T00:37:54.379Z,5.39
2023-01-21T00:40:27.779Z,5.45
2023-01-21T00:43:01.256Z,5.54
2023-01-21T00:45:34.717Z,5.61
2023-01-21T00:48:24.199Z,5.44
2023-01-21T00:51:00.714Z,5.36
2023-01-21T00:53:36.280Z,5.20
2023-01-21T00:56:11.205Z,5.11
2023-01-21T00:58:45.120Z,5.26
2023-01-21T01:01:20.719Z,5.18
2023-01-21T01:03:55.281Z,5.26
2023-01-21T01:06:28.688Z,5.39
2023-01-21T01:09:02.044Z,5.43
2023-01-21T01:11:35.340Z,5.28
2023-01-21T01:14:09.587Z,5.37
2023-01-21T01:16:44.448Z,5.35
2023-01-21T01:19:19.509Z,5.20
2023-01-21T01:21:52.711Z,5.04
2023-01-21T01:24:26.058Z,5.21
2023-01-21T01:26:59.814Z,5.08
2023-01-21T01:29:33.391Z,4.79
2023-01-21T01:32:07.133Z,4.90
2023-01-21T01:34:41.754Z,5.02
2023-01-21T01:37:16.892Z,4.92
2023-01-21T01:39:50.167Z,4.71
2023-01-21T01:42:23.799Z,4.78
2023-01-21T01:45:00.358Z,4.94
2023-01-21T01:47:38.646Z,4.97
2023-01-21T01:50:19.116Z,4.70
2023-01-21T01:52:52.316Z,4.67
2023-01-21T01:55:25.758Z,4.70
2023-01-21T01:58:00.039Z,4.73
2023-01-21T02:00:33.549Z,4.57
2023-01-21T02:03:25.048Z,4.57
2023-01-21T02:06:00.238Z,4.42
2023-01-21T02:08:36.377Z,4.55
2023-01-21T02:11:13.288Z,4.38
2023-01-21T02:13:51.824Z,4.40
2023-01-21T02:16:50.405Z,4.65
2023-01-21T02:19:44.101Z,4.67
2023-01-21T02:22:28.976Z,4.46
2023-01-21T02:25:45.759Z,4.51
2023-01-21T02:29:09.614Z,4.42
2023-01-21T02:32:10.252Z,4.25
2023-01-21T02:34:50.548Z,4.51
2023-01-21T02:37:29.981Z,4.16
2023-01-21T02:40:15.055Z,4.42
2023-01-21T02:42:52.144Z,4.46
2023-01-21T02:45:30.905Z,4.26
2023-01-21T02:48:09.012Z,4.44
2023-01-21T02:50:46.292Z,4.38
2023-01-21T02:53:26.169Z,4.48
2023-01-21T02:56:06.607Z,4.54
2023-01-21T02:58:47.548Z,4.27
2023-01-21T03:01:32.933Z,4.60
2023-01-21T03:04:53.421Z,4.83
2023-01-21T03:07:34.282Z,4.85
2023-01-21T03:10:11.211Z,4.82
2023-01-21T03:12:56.382Z,4.49
2023-01-21T03:15:50.356Z,4.83
2023-01-21T03:18:27.607Z,4.48
2023-01-21T03:21:08.419Z,4.27
2023-01-21T03:23:47.405Z,4.37
2023-01-21T03:26:25.677Z,4.56
2023-01-21T03:29:03.349Z,4.57
2023-01-21T03:31:40.400Z,4.39
2023-01-21T03:34:16.825Z,4.54
2023-01-21T03:36:56.032Z,4.65
2023-01-21T03:39:39.588Z,4.62
2023-01-21T03:42:14.236Z,4.71
2023-01-21T03:44:47.886Z,4.71
2023-01-21T03:47:23.812Z,4.71
2023-01-21T03:50:01.627Z,4.64
2023-01-21T03:52:35.356Z,4.58
2023-01-21T03:55:11.456Z,4.13
2023-01-21T03:57:44.722Z,4.38
2023-01-21T04:00:19.543Z,4.49
2023-01-21T04:02:53.299Z,4.36
2023-01-21T04:05:26.664Z,3.97
2023-01-21T04:07:59.951Z,4.12
2023-01-21T04:10:34.699Z,3.93
2023-01-21T04:13:10.192Z,3.91
2023-01-21T04:15:43.827Z,4.02
2023-01-21T04:18:17.082Z,3.85
2023-01-21T04:20:50.893Z,4.06
2023-01-21T04:23:23.875Z,4.09
2023-01-21T04:25:58.496Z,4.18
2023-01-21T04:28:31.722Z,4.22
2023-01-21T04:31:05.404Z,4.17
2023-01-21T04:33:38.732Z,4.06
2023-01-21T04:36:12.057Z,3.92
2023-01-21T04:38:45.294Z,4.02
2023-01-21T04:41:20.052Z,3.99
2023-01-21T04:43:53.439Z,3.80
2023-01-21T04:46:26.606Z,3.99
2023-01-21T04:48:59.701Z,4.15
2023-01-21T04:51:32.996Z,4.21
2023-01-21T04:54:06.308Z,4.17
2023-01-21T04:56:40.982Z,4.16
2023-01-21T04:59:14.269Z,4.14
2023-01-21T05:01:47.702Z,3.98
2023-01-21T05:04:21.658Z,3.78
2023-01-21T05:06:55.705Z,4.02
2023-01-21T05:09:28.911Z,4.20
2023-01-21T05:12:03.889Z,4.08
2023-01-21T05:14:37.771Z,4.01
2023-01-21T05:17:11.494Z,4.00
2023-01-21T05:19:45.135Z,4.10
2023-01-21T05:22:18.466Z,3.96
2023-01-21T05:24:52.021Z,4.05
2023-01-21T05:27:27.129Z,4.12
2023-01-21T05:30:00.819Z,3.99
2023-01-21T05:32:35.763Z,4.07
2023-01-21T05:35:09.920Z,3.95
2023-01-21T05:37:43.110Z,4.01
2023-01-21T05:40:17.558Z,3.92
2023-01-21T05:42:52.373Z,3.80
2023-01-21T05:45:25.962Z,4.09
2023-01-21T05:47:59.447Z,4.15
2023-01-21T05:50:32.970Z,4.07
2023-01-21T05:53:06.476Z,4.10
2023-01-21T05:55:39.966Z,4.18
2023-01-21T05:58:14.612Z,4.17
2023-01-21T06:00:48.726Z,4.24
2023-01-21T06:03:21.785Z,4.35
2023-01-21T06:05:55.500Z,4.29
2023-01-21T06:08:28.979Z,4.32
2023-01-21T06:11:02.277Z,4.34
2023-01-21T06:13:51.564Z,4.40
2023-01-21T06:16:24.907Z,4.29
2023-01-21T06:18:58.350Z,4.21
2023-01-21T06:21:31.694Z,4.33
2023-01-21T06:24:05.282Z,4.34
2023-01-21T06:26:38.554Z,4.29
2023-01-21T06:29:13.788Z,4.29
2023-01-21T06:31:47.358Z,4.22
2023-01-21T06:34:21.387Z,4.11
2023-01-21T06:36:54.789Z,4.25
2023-01-21T06:39:28.088Z,4.31
2023-01-21T06:42:01.503Z,4.56
2023-01-21T06:44:36.132Z,4.57
2023-01-21T06:47:09.473Z,4.46
2023-01-21T06:49:43.437Z,4.47
2023-01-21T06:52:16.740Z,4.59
2023-01-21T06:54:50.408Z,4.45
2023-01-21T06:57:24.889Z,4.50
2023-01-21T06:59:59.494Z,4.56
2023-01-21T07:02:32.827Z,4.46
2023-01-21T07:05:06.910Z,4.72
2023-01-21T07:07:40.408Z,4.86
2023-01-21T07:10:13.750Z,4.98
2023-01-21T07:12:46.919Z,5.10
2023-01-21T07:15:21.606Z,5.18
2023-01-21T07:17:54.818Z,5.27
2023-01-21T07:20:28.014Z,5.32
2023-01-21T07:23:01.211Z,5.38
2023-01-21T07:25:36.171Z,5.37
2023-01-21T07:28:09.362Z,5.48
2023-01-21T07:30:44.161Z,5.38
2023-01-21T07:33:17.443Z,5.56
2023-01-21T07:35:51.181Z,5.63
2023-01-21T07:38:26.038Z,5.61
2023-01-21T07:40:59.309Z,5.65
2023-01-21T07:43:32.515Z,5.74
2023-01-21T07:46:07.292Z,5.86
2023-01-21T07:48:40.416Z,5.98
2023-01-21T07:51:13.997Z,6.05
2023-01-21T07:53:47.366Z,6.07
2023-01-21T07:56:20.905Z,6.28
2023-01-21T07:58:54.947Z,6.42
2023-01-21T08:01:31.480Z,6.38
2023-01-21T08:04:04.863Z,6.43
2023-01-21T08:06:41.497Z,6.42
2023-01-21T08:09:14.961Z,6.49
2023-01-21T08:11:49.376Z,6.74
2023-01-21T08:14:23.080Z,6.75
2023-01-21T08:16:58.030Z,6.75
2023-01-21T08:19:31.316Z,6.76
2023-01-21T08:22:05.801Z,6.75
2023-01-21T08:24:38.950Z,6.89
2023-01-21T08:27:12.316Z,7.02
2023-01-21T08:29:46.944Z,7.22
2023-01-21T08:32:21.537Z,7.45
2023-01-21T08:34:54.806Z,7.43
2023-01-21T08:37:28.095Z,7.52
2023-01-21T08:40:01.361Z,7.70
2023-01-21T08:42:34.710Z,7.81
2023-01-21T08:45:08.932Z,7.98
2023-01-21T08:47:43.533Z,7.91
2023-01-21T08:50:17.488Z,7.81
2023-01-21T08:52:54.564Z,7.73
2023-01-21T08:55:28.256Z,7.78
2023-01-21T08:58:03.553Z,7.73
2023-01-21T09:00:37.087Z,7.79
2023-01-21T09:03:13.339Z,7.78
2023-01-21T09:05:46.651Z,7.81
2023-01-21T09:08:19.895Z,7.78
2023-01-21T09:11:03.699Z,7.83
2023-01-21T09:13:43.231Z,7.95
2023-01-21T09:16:18.501Z,8.04
2023-01-21T09:18:53.393Z,8.13
2023-01-21T09:21:27.111Z,8.24
2023-01-21T09:24:00.414Z,8.40
2023-01-21T09:26:33.661Z,8.54
2023-01-21T09:29:06.932Z,8.54
2023-01-21T09:31:40.297Z,8.60
2023-01-21T09:34:15.098Z,8.62
2023-01-21T09:36:48.351Z,8.96
2023-01-21T09:39:21.635Z,8.89
2023-01-21T09:41:58.192Z,8.92
2023-01-21T09:44:36.472Z,9.05
2023-01-21T09:47:19.220Z,9.16
2023-01-21T09:49:57.107Z,9.09
2023-01-21T09:52:34.460Z,9.00
2023-01-21T09:55:16.203Z,9.13
2023-01-21T09:58:14.713Z,9.29
2023-01-21T10:00:53.691Z,9.29
2023-01-21T10:03:34.148Z,9.18
2023-01-21T10:06:35.182Z,9.16
2023-01-21T10:09:36.605Z,9.19
2023-01-21T10:12:35.547Z,9.27
2023-01-21T10:15:34.883Z,9.27
2023-01-21T10:18:12.248Z,9.24
2023-01-21T10:20:51.825Z,9.16
2023-01-21T10:23:29.902Z,9.07
2023-01-21T10:26:09.428Z,9.07
2023-01-21T10:28:48.408Z,9.06
2023-01-21T10:31:24.500Z,9.07
2023-01-21T10:33:57.934Z,9.03
2023-01-21T10:37:01.769Z,8.97
2023-01-21T10:39:45.310Z,9.00
2023-01-21T10:42:35.914Z,8.81
2023-01-21T10:45:19.018Z,8.89
2023-01-21T10:48:03.132Z,8.89
2023-01-21T10:50:48.040Z,8.88
2023-01-21T10:53:28.486Z,8.85
2023-01-21T10:56:21.176Z,8.75
2023-01-21T10:58:58.759Z,8.70
2023-01-21T11:01:36.617Z,8.72
2023-01-21T11:04:14.396Z,8.67
2023-01-21T11:06:53.683Z,8.64
2023-01-21T11:09:29.648Z,8.68
2023-01-21T11:12:05.982Z,8.69
2023-01-21T11:14:40.038Z,8.73
2023-01-21T11:17:14.354Z,8.71
2023-01-21T11:19:59.625Z,8.57
2023-01-21T11:22:34.009Z,8.70
2023-01-21T11:25:26.298Z,8.68
2023-01-21T11:28:01.224Z,8.67
2023-01-21T11:30:50.012Z,8.65
2023-01-21T11:33:35.650Z,8.62
2023-01-21T11:36:15.286Z,8.66
2023-01-21T11:39:01.137Z,8.68
2023-01-21T11:41:34.891Z,8.67
2023-01-21T11:44:18.758Z,8.72
2023-01-21T11:46:53.301Z,8.71
2023-01-21T11:49:29.990Z,8.75
2023-01-21T11:52:18.711Z,8.77
2023-01-21T11:54:51.850Z,8.67
2023-01-21T11:57:33.877Z,8.86
2023-01-21T12:00:19.951Z,8.70
2023-01-21T12:02:57.176Z,8.60
2023-01-21T12:05:34.110Z,8.81
2023-01-21T12:08:08.773Z,8.87
2023-01-21T12:10:45.165Z,8.83
2023-01-21T12:13:21.221Z,8.69
2023-01-21T12:16:26.564Z,8.98
2023-01-21T12:19:21.452Z,8.99
2023-01-21T12:22:07.905Z,9.02
2023-01-21T12:24:55.417Z,9.02
2023-01-21T12:27:36.150Z,8.99
2023-01-21T12:30:18.148Z,8.96
2023-01-21T12:32:58.486Z,8.94
2023-01-21T12:35:37.316Z,9.04
2023-01-21T12:38:16.127Z,9.09
2023-01-21T12:40:56.953Z,9.05
2023-01-21T12:43:36.331Z,9.20
2023-01-21T12:46:16.929Z,9.30
2023-01-21T12:48:55.807Z,9.36
2023-01-21T12:51:31.814Z,9.34
2023-01-21T12:54:19.364Z,9.29
2023-01-21T12:56:58.803Z,9.35
2023-01-21T12:59:39.688Z,9.17
2023-01-21T13:02:33.499Z,9.43
2023-01-21T13:05:19.002Z,9.43
2023-01-21T13:08:30.690Z,9.45
2023-01-21T13:11:23.563Z,9.41
2023-01-21T13:14:20.492Z,9.39
2023-01-21T13:17:12.550Z,9.43
2023-01-21T13:19:45.890Z,9.35
2023-01-21T13:22:43.705Z,9.39
2023-01-21T13:25:22.560Z,9.43
2023-01-21T13:28:18.785Z,9.35
2023-01-21T13:31:08.641Z,9.32
2023-01-21T13:34:05.846Z,9.41
2023-01-21T13:37:02.869Z,9.45
2023-01-21T13:40:00.155Z,9.46
2023-01-21T13:42:44.306Z,9.44
2023-01-21T13:45:36.538Z,9.51
2023-01-21T13:48:34.259Z,9.45
2023-01-21T13:51:34.078Z,9.58
2023-01-21T13:54:43.775Z,9.57
2023-01-21T13:57:58.729Z,9.56
2023-01-21T14:00:55.624Z,9.58
2023-01-21T14:03:49.305Z,9.55
2023-01-21T14:06:39.957Z,9.64
2023-01-21T14:09:34.868Z,9.63
2023-01-21T14:12:35.987Z,9.58
2023-01-21T14:15:44.933Z,9.61
2023-01-21T14:18:48.591Z,9.60
2023-01-21T14:21:41.006Z,9.62
2023-01-21T14:24:44.175Z,9.63
2023-01-21T14:27:28.980Z,9.63
2023-01-21T14:30:20.037Z,9.62
2023-01-21T14:33:14.188Z,9.59
2023-01-21T14:36:09.299Z,9.57
2023-01-21T14:39:05.514Z,9.48
2023-01-21T14:42:02.987Z,9.51
2023-01-21T14:45:04.694Z,9.44
2023-01-21T14:47:50.641Z,9.34
2023-01-21T14:50:48.318Z,9.45
2023-01-21T14:53:25.595Z,9.41
2023-01-21T14:56:24.429Z,9.39
2023-01-21T14:59:33.231Z,9.39
2023-01-21T15:02:28.579Z,9.28
2023-01-21T15:05:05.050Z,9.33
2023-01-21T15:08:08.208Z,9.29
2023-01-21T15:10:43.184Z,9.31
2023-01-21T15:13:29.669Z,9.30
2023-01-21T15:16:16.367Z,9.28
2023-01-21T15:19:24.363Z,9.29
2023-01-21T15:22:39.816Z,9.31
2023-01-21T15:25:21.259Z,9.33
2023-01-21T15:28:44.244Z,9.31
2023-01-21T15:31:43.472Z,9.37
2023-01-21T15:34:35.019Z,9.39
2023-01-21T15:37:22.416Z,9.35
2023-01-21T15:40:19.322Z,9.34
2023-01-21T15:43:20.539Z,9.36
2023-01-21T15:46:23.858Z,9.37
2023-01-21T15:49:26.253Z,9.29
2023-01-21T15:52:29.434Z,9.36
2023-01-21T15:55:33.860Z,9.44
2023-01-21T15:58:29.684Z,9.37
2023-01-21T16:01:27.047Z,9.35
2023-01-21T16:04:29.560Z,9.35
2023-01-21T16:07:22.060Z,9.34
2023-01-21T16:10:20.231Z,9.35
2023-01-21T16:13:17.618Z,9.35
2023-01-21T16:16:14.733Z,9.33
2023-01-21T16:18:59.294Z,9.29
2023-01-21T16:21:52.184Z,9.28
2023-01-21T16:24:28.882Z,9.28
2023-01-21T16:27:18.424Z,9.30
2023-01-21T16:30:03.243Z,9.28
2023-01-21T16:32:44.323Z,9.30
2023-01-21T16:35:43.109Z,9.30
2023-01-21T16:38:30.741Z,9.15
2023-01-21T16:41:24.217Z,9.27
2023-01-21T16:44:17.538Z,9.23
2023-01-21T16:47:05.587Z,9.23
2023-01-21T16:49:54.937Z,9.23
2023-01-21T16:52:28.471Z,9.26
2023-01-21T16:55:01.838Z,9.26
2023-01-21T16:57:40.285Z,9.26
2023-01-21T17:00:24.478Z,9.24
2023-01-21T17:03:13.083Z,9.20
2023-01-21T17:06:06.701Z,9.21
2023-01-21T17:08:59.950Z,9.23
2023-01-21T17:11:48.413Z,9.27
2023-01-21T17:14:31.965Z,9.24
2023-01-21T17:17:24.087Z,9.10
2023-01-21T17:20:35.557Z,9.21
2023-01-21T17:23:19.273Z,9.20
2023-01-21T17:25:56.366Z,9.20
2023-01-21T17:28:47.916Z,9.08
2023-01-21T17:31:28.618Z,9.17
2023-01-21T17:34:22.947Z,9.12
2023-01-21T17:37:43.067Z,9.16
2023-01-21T17:40:32.995Z,9.16
2023-01-21T17:43:23.535Z,9.15
2023-01-21T17:46:20.378Z,9.13
2023-01-21T17:49:14.833Z,9.12
2023-01-21T17:52:03.088Z,9.15
2023-01-21T17:54:50.306Z,9.13
2023-01-21T17:57:39.741Z,9.12
2023-01-21T18:00:35.665Z,9.16
2023-01-21T18:03:09.544Z,9.21
2023-01-21T18:05:49.215Z,9.32
2023-01-21T18:08:37.239Z,9.27
2023-01-21T18:11:25.346Z,9.21
2023-01-21T18:14:18.821Z,9.13
2023-01-21T18:17:10.458Z,9.28
2023-01-21T18:19:58.079Z,9.22
2023-01-21T18:22:47.485Z,9.21
2023-01-21T18:25:35.581Z,9.19
2023-01-21T18:28:26.685Z,9.18
2023-01-21T18:31:16.763Z,9.27
2023-01-21T18:34:05.501Z,9.32
2023-01-21T18:36:54.577Z,9.29
2023-01-21T18:39:42.649Z,9.36
2023-01-21T18:42:24.577Z,9.29
2023-01-21T18:45:18.004Z,9.26
2023-01-21T18:47:59.597Z,9.25
2023-01-21T18:50:48.038Z,9.25
2023-01-21T18:53:34.985Z,9.24
2023-01-21T18:56:15.883Z,9.27
2023-01-21T18:59:04.273Z,9.23
2023-01-21T19:01:50.026Z,9.28
2023-01-21T19:04:25.283Z,9.27
2023-01-21T19:07:16.640Z,9.28
2023-01-21T19:09:58.667Z,9.27
2023-01-21T19:12:49.769Z,9.27
2023-01-21T19:15:38.940Z,9.26
2023-01-21T19:18:14.726Z,9.24
2023-01-21T19:20:58.606Z,9.23
2023-01-21T19:23:47.887Z,9.21
2023-01-21T19:26:37.353Z,9.15
2023-01-21T19:29:29.158Z,9.21
2023-01-21T19:32:15.022Z,9.19
2023-01-21T19:35:04.194Z,9.20
2023-01-21T19:37:41.115Z,9.22
2023-01-21T19:40:31.348Z,9.23
2023-01-21T19:43:17.233Z,9.21
2023-01-21T19:46:12.176Z,9.25
2023-01-21T19:48:55.571Z,9.19
2023-01-21T19:51:39.505Z,9.20
2023-01-21T19:54:30.003Z,9.21
2023-01-21T19:57:19.752Z,9.21
2023-01-21T19:59:54.718Z,9.20
2023-01-21T20:02:43.720Z,9.20
2023-01-21T20:05:18.076Z,9.22
2023-01-21T20:08:04.994Z,9.20
2023-01-21T20:10:54.953Z,9.24
2023-01-21T20:13:43.764Z,9.20
2023-01-21T20:16:23.945Z,9.19
2023-01-21T20:19:03.393Z,9.19
2023-01-21T20:21:59.649Z,9.19
2023-01-21T20:24:49.337Z,9.19
2023-01-21T20:27:33.599Z,9.18
2023-01-21T20:30:28.241Z,9.17
2023-01-21T20:33:19.206Z,9.18
2023-01-21T20:36:01.669Z,9.17
2023-01-21T20:38:44.445Z,9.17
2023-01-21T20:41:32.715Z,9.16
2023-01-21T20:44:22.246Z,9.16
2023-01-21T20:47:11.875Z,9.15
2023-01-21T20:49:51.411Z,9.18
2023-01-21T20:52:37.903Z,9.17
2023-01-21T20:55:27.379Z,9.15
2023-01-21T20:58:16.517Z,9.15
2023-01-21T21:01:01.945Z,9.15
2023-01-21T21:03:51.195Z,9.16
2023-01-21T21:06:34.891Z,9.17
2023-01-21T21:09:08.468Z,9.17
2023-01-21T21:11:56.516Z,9.18
2023-01-21T21:14:33.442Z,9.17
2023-01-21T21:17:23.056Z,9.16
2023-01-21T21:20:19.725Z,9.15
2023-01-21T21:23:08.897Z,9.15
2023-01-21T21:25:55.542Z,9.01
2023-01-21T21:28:35.070Z,9.16
2023-01-21T21:31:19.255Z,9.15
2023-01-21T21:34:07.001Z,9.16
2023-01-21T21:36:50.765Z,9.15
2023-01-21T21:39:30.340Z,9.15
2023-01-21T21:42:21.498Z,9.15
2023-01-21T21:44:54.887Z,9.15
2023-01-21T21:47:54.937Z,9.15
2023-01-21T21:50:29.725Z,9.15
2023-01-21T21:53:12.545Z,9.05
2023-01-21T21:55:56.765Z,9.11
2023-01-21T21:58:37.347Z,9.10
2023-01-21T22:01:21.738Z,9.10
2023-01-21T22:03:55.247Z,9.09
2023-01-21T22:06:44.772Z,9.11
2023-01-21T22:09:28.120Z,9.08
2023-01-21T22:12:09.927Z,9.07
2023-01-21T22:14:57.892Z,9.06
2023-01-21T22:17:34.671Z,9.06
2023-01-21T22:20:08.740Z,9.04
2023-01-21T22:22:57.976Z,9.05
2023-01-21T22:25:45.883Z,9.01
2023-01-21T22:28:29.517Z,9.00
2023-01-21T22:31:19.143Z,9.00
2023-01-21T22:34:07.195Z,9.01
2023-01-21T22:36:53.400Z,9.01
2023-01-21T22:39:42.758Z,9.03
2023-01-21T22:42:15.926Z,9.01
2023-01-21T22:44:49.124Z,9.00
2023-01-21T22:47:34.889Z,9.04
2023-01-21T22:50:12.937Z,8.99
2023-01-21T22:53:00.820Z,8.97
2023-01-21T22:55:36.484Z,8.99
2023-01-21T22:58:09.759Z,8.95
2023-01-21T23:00:43.081Z,8.94
2023-01-21T23:03:31.834Z,8.93
2023-01-21T23:06:20.500Z,8.92
2023-01-21T23:09:11.206Z,8.91
2023-01-21T23:11:52.707Z,8.92
2023-01-21T23:14:40.260Z,8.89
2023-01-21T23:17:28.159Z,8.89
2023-01-21T23:20:01.434Z,8.88
2023-01-21T23:22:34.921Z,8.87
2023-01-21T23:25:19.279Z,8.88
2023-01-21T23:28:06.984Z,8.87
2023-01-21T23:30:55.022Z,8.85
2023-01-21T23:33:41.467Z,8.84
2023-01-21T23:36:29.461Z,8.83
2023-01-21T23:39:03.590Z,8.82
2023-01-21T23:41:51.549Z,8.82
2023-01-21T23:44:40.855Z,8.79
2023-01-21T23:47:29.517Z,8.80
2023-01-21T23:50:08.859Z,8.79
2023-01-21T23:52:42.849Z,8.79
2023-01-21T23:55:27.068Z,8.78
2023-01-21T23:58:00.378Z,8.78
